sensor_id;sensor_type;location;lat;lon;timestamp;P1;durP1;ratioP1;P2;durP2;ratioP2
57303;SDS011;43150;50.986;18.208;2023-04-01T00:00:50;11.80;;;6.70;;
57303;SDS011;43150;50.986;18.208;2023-04-01T00:03:17;12.60;;;6.20;;
57303;SDS011;43150;50.986;18.208;2023-04-01T00:05:45;10.00;;;6.40;;
57303;SDS011;43150;50.986;18.208;2023-04-01T00:08:11;9.70;;;6.10;;
57303;SDS011;43150;50.986;18.208;2023-04-01T00:10:45;11.30;;;6.50;;
57303;SDS011;43150;50.986;18.208;2023-04-01T00:13:14;7.40;;;5.50;;
57303;SDS011;43150;50.986;18.208;2023-04-01T00:15:41;11.00;;;6.10;;
57303;SDS011;43150;50.986;18.208;2023-04-01T00:18:07;11.80;;;6.20;;
57303;SDS011;43150;50.986;18.208;2023-04-01T00:20:32;12.60;;;7.70;;
57303;SDS011;43150;50.986;18.208;2023-04-01T00:22:58;13.50;;;7.10;;
57303;SDS011;43150;50.986;18.208;2023-04-01T00:25:24;13.10;;;7.20;;
57303;SDS011;43150;50.986;18.208;2023-04-01T00:27:50;12.60;;;6.60;;
57303;SDS011;43150;50.986;18.208;2023-04-01T00:30:15;10.20;;;6.30;;
57303;SDS011;43150;50.986;18.208;2023-04-01T00:32:41;10.40;;;6.80;;
57303;SDS011;43150;50.986;18.208;2023-04-01T00:35:07;9.10;;;6.30;;
57303;SDS011;43150;50.986;18.208;2023-04-01T00:37:34;12.50;;;7.00;;
57303;SDS011;43150;50.986;18.208;2023-04-01T00:40:00;10.30;;;5.70;;
57303;SDS011;43150;50.986;18.208;2023-04-01T00:42:25;10.40;;;6.30;;
57303;SDS011;43150;50.986;18.208;2023-04-01T00:44:52;9.70;;;5.40;;
57303;SDS011;43150;50.986;18.208;2023-04-01T00:47:18;10.90;;;6.00;;
57303;SDS011;43150;50.986;18.208;2023-04-01T00:49:45;10.00;;;5.80;;
57303;SDS011;43150;50.986;18.208;2023-04-01T00:52:13;7.90;;;5.80;;
57303;SDS011;43150;50.986;18.208;2023-04-01T00:54:39;10.70;;;6.20;;
57303;SDS011;43150;50.986;18.208;2023-04-01T00:57:21;12.00;;;7.00;;
57303;SDS011;43150;50.986;18.208;2023-04-01T00:59:49;17.80;;;8.90;;
57303;SDS011;43150;50.986;18.208;2023-04-01T01:02:18;15.90;;;8.60;;
57303;SDS011;43150;50.986;18.208;2023-04-01T01:04:44;13.00;;;7.20;;
57303;SDS011;43150;50.986;18.208;2023-04-01T01:07:26;15.20;;;7.80;;
57303;SDS011;43150;50.986;18.208;2023-04-01T01:12:38;8.20;;;5.30;;
57303;SDS011;43150;50.986;18.208;2023-04-01T01:28:16;7.50;;;5.90;;
57303;SDS011;43150;50.986;18.208;2023-04-01T01:33:21;10.70;;;6.70;;
57303;SDS011;43150;50.986;18.208;2023-04-01T01:35:51;7.20;;;5.60;;
57303;SDS011;43150;50.986;18.208;2023-04-01T01:38:19;8.50;;;5.20;;
57303;SDS011;43150;50.986;18.208;2023-04-01T01:40:48;9.60;;;6.40;;
57303;SDS011;43150;50.986;18.208;2023-04-01T01:43:17;8.10;;;5.60;;
57303;SDS011;43150;50.986;18.208;2023-04-01T01:45:46;11.10;;;6.00;;
57303;SDS011;43150;50.986;18.208;2023-04-01T01:48:13;8.90;;;5.90;;
57303;SDS011;43150;50.986;18.208;2023-04-01T01:50:40;8.70;;;6.10;;
57303;SDS011;43150;50.986;18.208;2023-04-01T01:53:07;9.50;;;6.80;;
57303;SDS011;43150;50.986;18.208;2023-04-01T01:55:34;9.40;;;6.40;;
57303;SDS011;43150;50.986;18.208;2023-04-01T01:58:02;10.30;;;6.80;;
57303;SDS011;43150;50.986;18.208;2023-04-01T02:00:39;11.00;;;7.60;;
57303;SDS011;43150;50.986;18.208;2023-04-01T02:03:05;11.20;;;8.10;;
57303;SDS011;43150;50.986;18.208;2023-04-01T02:05:31;10.10;;;8.00;;
57303;SDS011;43150;50.986;18.208;2023-04-01T02:08:00;12.80;;;8.60;;
57303;SDS011;43150;50.986;18.208;2023-04-01T02:10:27;14.60;;;9.90;;
57303;SDS011;43150;50.986;18.208;2023-04-01T02:12:55;14.30;;;7.90;;
57303;SDS011;43150;50.986;18.208;2023-04-01T02:15:23;10.90;;;7.40;;
57303;SDS011;43150;50.986;18.208;2023-04-01T02:17:51;9.50;;;7.50;;
57303;SDS011;43150;50.986;18.208;2023-04-01T02:20:18;12.90;;;9.00;;
57303;SDS011;43150;50.986;18.208;2023-04-01T02:22:50;12.20;;;7.70;;
57303;SDS011;43150;50.986;18.208;2023-04-01T02:25:49;8.70;;;6.50;;
57303;SDS011;43150;50.986;18.208;2023-04-01T02:28:08;15.20;;;8.50;;
57303;SDS011;43150;50.986;18.208;2023-04-01T02:30:36;25.60;;;13.40;;
57303;SDS011;43150;50.986;18.208;2023-04-01T02:33:03;34.80;;;14.70;;
57303;SDS011;43150;50.986;18.208;2023-04-01T02:35:30;28.20;;;12.80;;
57303;SDS011;43150;50.986;18.208;2023-04-01T02:38:03;20.10;;;10.70;;
57303;SDS011;43150;50.986;18.208;2023-04-01T02:40:29;23.10;;;11.20;;
57303;SDS011;43150;50.986;18.208;2023-04-01T02:42:54;22.20;;;10.70;;
57303;SDS011;43150;50.986;18.208;2023-04-01T02:45:20;21.80;;;10.40;;
57303;SDS011;43150;50.986;18.208;2023-04-01T02:47:46;19.60;;;8.50;;
57303;SDS011;43150;50.986;18.208;2023-04-01T02:50:11;17.50;;;9.10;;
57303;SDS011;43150;50.986;18.208;2023-04-01T02:52:44;20.80;;;8.80;;
57303;SDS011;43150;50.986;18.208;2023-04-01T02:55:09;22.20;;;9.40;;
57303;SDS011;43150;50.986;18.208;2023-04-01T02:57:35;29.00;;;12.00;;
57303;SDS011;43150;50.986;18.208;2023-04-01T03:00:00;46.20;;;16.20;;
57303;SDS011;43150;50.986;18.208;2023-04-01T03:02:27;73.50;;;22.70;;
57303;SDS011;43150;50.986;18.208;2023-04-01T03:04:52;61.70;;;21.60;;
57303;SDS011;43150;50.986;18.208;2023-04-01T03:07:18;70.80;;;32.90;;
57303;SDS011;43150;50.986;18.208;2023-04-01T03:09:44;55.70;;;19.70;;
57303;SDS011;43150;50.986;18.208;2023-04-01T03:12:10;51.40;;;19.20;;
57303;SDS011;43150;50.986;18.208;2023-04-01T03:14:36;28.20;;;12.00;;
57303;SDS011;43150;50.986;18.208;2023-04-01T03:17:01;21.70;;;13.50;;
57303;SDS011;43150;50.986;18.208;2023-04-01T03:19:26;13.10;;;7.60;;
57303;SDS011;43150;50.986;18.208;2023-04-01T03:21:52;14.60;;;7.70;;
57303;SDS011;43150;50.986;18.208;2023-04-01T03:24:18;9.80;;;6.60;;
57303;SDS011;43150;50.986;18.208;2023-04-01T03:26:43;11.70;;;6.70;;
57303;SDS011;43150;50.986;18.208;2023-04-01T03:29:09;8.20;;;5.40;;
57303;SDS011;43150;50.986;18.208;2023-04-01T03:31:41;9.70;;;6.80;;
57303;SDS011;43150;50.986;18.208;2023-04-01T03:34:07;9.20;;;6.40;;
57303;SDS011;43150;50.986;18.208;2023-04-01T03:36:34;7.70;;;6.40;;
57303;SDS011;43150;50.986;18.208;2023-04-01T03:38:59;10.90;;;6.60;;
57303;SDS011;43150;50.986;18.208;2023-04-01T03:41:27;8.90;;;5.70;;
57303;SDS011;43150;50.986;18.208;2023-04-01T03:43:53;7.40;;;5.30;;
57303;SDS011;43150;50.986;18.208;2023-04-01T03:46:19;8.30;;;6.30;;
57303;SDS011;43150;50.986;18.208;2023-04-01T03:48:45;12.10;;;6.70;;
57303;SDS011;43150;50.986;18.208;2023-04-01T03:51:11;18.70;;;8.30;;
57303;SDS011;43150;50.986;18.208;2023-04-01T03:53:36;21.80;;;10.00;;
57303;SDS011;43150;50.986;18.208;2023-04-01T03:56:07;23.20;;;10.10;;
57303;SDS011;43150;50.986;18.208;2023-04-01T03:58:34;17.50;;;8.10;;
57303;SDS011;43150;50.986;18.208;2023-04-01T04:00:59;14.40;;;8.30;;
57303;SDS011;43150;50.986;18.208;2023-04-01T04:03:25;16.80;;;9.00;;
57303;SDS011;43150;50.986;18.208;2023-04-01T04:05:52;24.40;;;10.10;;
57303;SDS011;43150;50.986;18.208;2023-04-01T04:08:18;32.40;;;17.30;;
57303;SDS011;43150;50.986;18.208;2023-04-01T04:10:47;21.50;;;10.30;;
57303;SDS011;43150;50.986;18.208;2023-04-01T04:13:13;25.60;;;10.20;;
57303;SDS011;43150;50.986;18.208;2023-04-01T04:15:39;22.60;;;10.20;;
57303;SDS011;43150;50.986;18.208;2023-04-01T04:18:04;22.00;;;11.40;;
57303;SDS011;43150;50.986;18.208;2023-04-01T04:20:30;23.30;;;12.00;;
57303;SDS011;43150;50.986;18.208;2023-04-01T04:22:55;20.10;;;10.60;;
57303;SDS011;43150;50.986;18.208;2023-04-01T04:25:21;20.30;;;9.90;;
57303;SDS011;43150;50.986;18.208;2023-04-01T04:27:47;16.40;;;8.90;;
57303;SDS011;43150;50.986;18.208;2023-04-01T04:30:12;18.00;;;11.10;;
57303;SDS011;43150;50.986;18.208;2023-04-01T04:32:38;16.00;;;8.90;;
57303;SDS011;43150;50.986;18.208;2023-04-01T04:35:04;16.50;;;8.50;;
57303;SDS011;43150;50.986;18.208;2023-04-01T04:37:34;21.20;;;9.30;;
57303;SDS011;43150;50.986;18.208;2023-04-01T04:39:59;22.00;;;12.20;;
57303;SDS011;43150;50.986;18.208;2023-04-01T04:42:25;18.70;;;9.10;;
57303;SDS011;43150;50.986;18.208;2023-04-01T04:44:51;11.40;;;8.30;;
57303;SDS011;43150;50.986;18.208;2023-04-01T04:47:16;12.20;;;8.00;;
57303;SDS011;43150;50.986;18.208;2023-04-01T04:49:42;12.50;;;9.60;;
57303;SDS011;43150;50.986;18.208;2023-04-01T04:52:17;11.70;;;8.70;;
57303;SDS011;43150;50.986;18.208;2023-04-01T04:54:43;14.80;;;8.30;;
57303;SDS011;43150;50.986;18.208;2023-04-01T04:57:08;13.60;;;8.80;;
57303;SDS011;43150;50.986;18.208;2023-04-01T04:59:39;12.90;;;8.40;;
57303;SDS011;43150;50.986;18.208;2023-04-01T05:02:04;13.50;;;7.60;;
57303;SDS011;43150;50.986;18.208;2023-04-01T05:04:33;10.00;;;7.00;;
57303;SDS011;43150;50.986;18.208;2023-04-01T05:06:59;8.10;;;5.50;;
57303;SDS011;43150;50.986;18.208;2023-04-01T05:09:25;8.00;;;6.20;;
57303;SDS011;43150;50.986;18.208;2023-04-01T05:11:51;9.10;;;6.30;;
57303;SDS011;43150;50.986;18.208;2023-04-01T05:14:16;13.10;;;6.70;;
57303;SDS011;43150;50.986;18.208;2023-04-01T05:16:42;12.50;;;6.80;;
57303;SDS011;43150;50.986;18.208;2023-04-01T05:19:08;14.10;;;8.80;;
57303;SDS011;43150;50.986;18.208;2023-04-01T05:21:40;14.50;;;7.50;;
57303;SDS011;43150;50.986;18.208;2023-04-01T05:24:08;14.40;;;7.50;;
57303;SDS011;43150;50.986;18.208;2023-04-01T05:26:35;12.30;;;7.70;;
57303;SDS011;43150;50.986;18.208;2023-04-01T05:29:02;13.30;;;6.90;;
57303;SDS011;43150;50.986;18.208;2023-04-01T05:31:28;9.90;;;5.60;;
57303;SDS011;43150;50.986;18.208;2023-04-01T05:33:54;13.90;;;7.00;;
57303;SDS011;43150;50.986;18.208;2023-04-01T05:36:22;12.30;;;6.90;;
57303;SDS011;43150;50.986;18.208;2023-04-01T05:38:48;9.40;;;6.30;;
57303;SDS011;43150;50.986;18.208;2023-04-01T05:41:15;10.50;;;7.10;;
57303;SDS011;43150;50.986;18.208;2023-04-01T05:43:41;11.30;;;8.20;;
57303;SDS011;43150;50.986;18.208;2023-04-01T05:46:10;14.00;;;7.30;;
57303;SDS011;43150;50.986;18.208;2023-04-01T05:48:35;11.20;;;8.50;;
57303;SDS011;43150;50.986;18.208;2023-04-01T05:51:02;11.00;;;7.30;;
57303;SDS011;43150;50.986;18.208;2023-04-01T05:53:27;8.70;;;6.30;;
57303;SDS011;43150;50.986;18.208;2023-04-01T05:55:53;7.70;;;4.50;;
57303;SDS011;43150;50.986;18.208;2023-04-01T05:58:19;6.60;;;4.60;;
57303;SDS011;43150;50.986;18.208;2023-04-01T06:00:44;4.70;;;3.70;;
57303;SDS011;43150;50.986;18.208;2023-04-01T06:03:13;3.30;;;2.90;;
57303;SDS011;43150;50.986;18.208;2023-04-01T06:05:45;4.80;;;3.40;;
57303;SDS011;43150;50.986;18.208;2023-04-01T06:08:14;5.50;;;3.70;;
57303;SDS011;43150;50.986;18.208;2023-04-01T06:13:22;4.60;;;3.80;;
57303;SDS011;43150;50.986;18.208;2023-04-01T06:16:00;6.10;;;3.60;;
57303;SDS011;43150;50.986;18.208;2023-04-01T06:18:34;4.40;;;3.60;;
57303;SDS011;43150;50.986;18.208;2023-04-01T06:45:41;5.70;;;4.70;;
57303;SDS011;43150;50.986;18.208;2023-04-01T06:48:29;5.00;;;4.30;;
57303;SDS011;43150;50.986;18.208;2023-04-01T06:56:46;4.80;;;3.40;;
57303;SDS011;43150;50.986;18.208;2023-04-01T06:59:22;4.50;;;4.10;;
57303;SDS011;43150;50.986;18.208;2023-04-01T07:04:43;4.70;;;4.20;;
57303;SDS011;43150;50.986;18.208;2023-04-01T07:07:15;5.60;;;4.80;;
57303;SDS011;43150;50.986;18.208;2023-04-01T07:09:55;6.10;;;3.70;;
57303;SDS011;43150;50.986;18.208;2023-04-01T07:15:04;5.60;;;3.30;;
57303;SDS011;43150;50.986;18.208;2023-04-01T07:17:42;5.10;;;3.90;;
57303;SDS011;43150;50.986;18.208;2023-04-01T07:20:23;4.50;;;2.60;;
57303;SDS011;43150;50.986;18.208;2023-04-01T07:23:01;4.30;;;2.90;;
57303;SDS011;43150;50.986;18.208;2023-04-01T07:25:29;5.20;;;4.20;;
57303;SDS011;43150;50.986;18.208;2023-04-01T07:28:03;6.20;;;4.90;;
57303;SDS011;43150;50.986;18.208;2023-04-01T07:31:06;4.30;;;3.80;;
57303;SDS011;43150;50.986;18.208;2023-04-01T07:35:58;4.00;;;2.80;;
57303;SDS011;43150;50.986;18.208;2023-04-01T07:38:44;3.80;;;3.50;;
57303;SDS011;43150;50.986;18.208;2023-04-01T07:41:30;5.00;;;4.50;;
57303;SDS011;43150;50.986;18.208;2023-04-01T07:44:17;5.50;;;5.00;;
57303;SDS011;43150;50.986;18.208;2023-04-01T07:49:49;5.30;;;4.80;;
57303;SDS011;43150;50.986;18.208;2023-04-01T07:58:14;6.20;;;5.60;;
57303;SDS011;43150;50.986;18.208;2023-04-01T08:03:45;3.60;;;2.50;;
57303;SDS011;43150;50.986;18.208;2023-04-01T08:09:06;3.60;;;2.70;;
57303;SDS011;43150;50.986;18.208;2023-04-01T08:11:41;3.10;;;2.20;;
57303;SDS011;43150;50.986;18.208;2023-04-01T08:22:43;2.70;;;1.70;;
57303;SDS011;43150;50.986;18.208;2023-04-01T08:25:16;3.30;;;2.30;;
57303;SDS011;43150;50.986;18.208;2023-04-01T08:27:45;3.90;;;2.00;;
57303;SDS011;43150;50.986;18.208;2023-04-01T08:30:24;5.20;;;3.90;;
57303;SDS011;43150;50.986;18.208;2023-04-01T08:32:58;2.90;;;2.50;;
57303;SDS011;43150;50.986;18.208;2023-04-01T08:35:27;3.00;;;1.80;;
57303;SDS011;43150;50.986;18.208;2023-04-01T08:37:54;4.00;;;2.80;;
57303;SDS011;43150;50.986;18.208;2023-04-01T08:43:15;3.30;;;2.90;;
57303;SDS011;43150;50.986;18.208;2023-04-01T08:45:44;2.10;;;1.80;;
57303;SDS011;43150;50.986;18.208;2023-04-01T08:48:35;4.50;;;2.40;;
57303;SDS011;43150;50.986;18.208;2023-04-01T08:58:54;4.90;;;4.50;;
57303;SDS011;43150;50.986;18.208;2023-04-01T09:01:46;4.60;;;4.20;;
57303;SDS011;43150;50.986;18.208;2023-04-01T09:06:58;2.70;;;2.50;;
57303;SDS011;43150;50.986;18.208;2023-04-01T09:09:31;4.20;;;3.90;;
57303;SDS011;43150;50.986;18.208;2023-04-01T09:22:49;1.70;;;1.60;;
57303;SDS011;43150;50.986;18.208;2023-04-01T09:28:18;5.60;;;5.10;;
57303;SDS011;43150;50.986;18.208;2023-04-01T09:36:07;3.50;;;3.20;;
57303;SDS011;43150;50.986;18.208;2023-04-01T09:41:39;3.20;;;2.90;;
57303;SDS011;43150;50.986;18.208;2023-04-01T09:44:25;2.70;;;2.50;;
57303;SDS011;43150;50.986;18.208;2023-04-01T09:59:54;3.80;;;3.50;;
57303;SDS011;43150;50.986;18.208;2023-04-01T10:02:38;5.90;;;4.20;;
57303;SDS011;43150;50.986;18.208;2023-04-01T10:36:34;1.80;;;1.50;;
57303;SDS011;43150;50.986;18.208;2023-04-01T10:49:41;2.80;;;2.60;;
57303;SDS011;43150;50.986;18.208;2023-04-01T10:52:18;3.00;;;2.20;;
57303;SDS011;43150;50.986;18.208;2023-04-01T10:54:49;2.30;;;1.20;;
57303;SDS011;43150;50.986;18.208;2023-04-01T11:00:38;0.70;;;0.70;;
57303;SDS011;43150;50.986;18.208;2023-04-01T11:03:39;1.00;;;0.90;;
57303;SDS011;43150;50.986;18.208;2023-04-01T11:06:51;0.90;;;0.70;;
57303;SDS011;43150;50.986;18.208;2023-04-01T11:24:55;1.80;;;1.60;;
57303;SDS011;43150;50.986;18.208;2023-04-01T11:37:49;3.00;;;2.20;;
57303;SDS011;43150;50.986;18.208;2023-04-01T11:40:34;2.80;;;2.60;;
57303;SDS011;43150;50.986;18.208;2023-04-01T11:43:08;2.30;;;2.10;;
57303;SDS011;43150;50.986;18.208;2023-04-01T11:45:50;3.10;;;2.80;;
57303;SDS011;43150;50.986;18.208;2023-04-01T11:56:58;3.60;;;3.30;;
57303;SDS011;43150;50.986;18.208;2023-04-01T12:05:08;3.90;;;3.60;;
57303;SDS011;43150;50.986;18.208;2023-04-01T12:10:17;3.30;;;3.00;;
57303;SDS011;43150;50.986;18.208;2023-04-01T12:18:48;3.40;;;3.10;;
57303;SDS011;43150;50.986;18.208;2023-04-01T12:31:47;3.30;;;3.00;;
57303;SDS011;43150;50.986;18.208;2023-04-01T12:34:39;4.40;;;4.00;;
57303;SDS011;43150;50.986;18.208;2023-04-01T12:37:20;4.00;;;3.70;;
57303;SDS011;43150;50.986;18.208;2023-04-01T12:45:16;5.60;;;5.10;;
57303;SDS011;43150;50.986;18.208;2023-04-01T12:50:41;5.00;;;4.50;;
57303;SDS011;43150;50.986;18.208;2023-04-01T12:53:16;4.30;;;4.00;;
57303;SDS011;43150;50.986;18.208;2023-04-01T12:56:05;5.20;;;4.70;;
57303;SDS011;43150;50.986;18.208;2023-04-01T13:01:27;4.30;;;3.90;;
57303;SDS011;43150;50.986;18.208;2023-04-01T13:04:15;3.90;;;3.60;;
57303;SDS011;43150;50.986;18.208;2023-04-01T13:19:50;2.50;;;2.30;;
57303;SDS011;43150;50.986;18.208;2023-04-01T13:31:19;1.50;;;1.40;;
57303;SDS011;43150;50.986;18.208;2023-04-01T13:33:41;1.60;;;1.50;;
57303;SDS011;43150;50.986;18.208;2023-04-01T13:36:16;1.40;;;1.30;;
57303;SDS011;43150;50.986;18.208;2023-04-01T13:52:02;1.90;;;1.70;;
57303;SDS011;43150;50.986;18.208;2023-04-01T13:57:21;2.40;;;1.50;;
57303;SDS011;43150;50.986;18.208;2023-04-01T14:13:27;1.50;;;1.40;;
57303;SDS011;43150;50.986;18.208;2023-04-01T14:36:56;3.00;;;1.70;;
57303;SDS011;43150;50.986;18.208;2023-04-01T14:47:28;2.60;;;1.60;;
57303;SDS011;43150;50.986;18.208;2023-04-01T14:50:03;2.20;;;1.40;;
57303;SDS011;43150;50.986;18.208;2023-04-01T14:55:41;4.50;;;1.80;;
57303;SDS011;43150;50.986;18.208;2023-04-01T15:00:48;4.50;;;1.70;;
57303;SDS011;43150;50.986;18.208;2023-04-01T15:04:08;4.40;;;2.10;;
57303;SDS011;43150;50.986;18.208;2023-04-01T15:06:15;2.60;;;2.00;;
57303;SDS011;43150;50.986;18.208;2023-04-01T15:14:05;4.90;;;2.30;;
57303;SDS011;43150;50.986;18.208;2023-04-01T15:19:28;1.70;;;1.20;;
57303;SDS011;43150;50.986;18.208;2023-04-01T15:22:06;1.60;;;1.10;;
57303;SDS011;43150;50.986;18.208;2023-04-01T15:24:41;2.10;;;1.00;;
57303;SDS011;43150;50.986;18.208;2023-04-01T15:37:32;2.00;;;1.30;;
57303;SDS011;43150;50.986;18.208;2023-04-01T15:42:43;2.50;;;2.30;;
57303;SDS011;43150;50.986;18.208;2023-04-01T15:45:17;3.50;;;3.00;;
57303;SDS011;43150;50.986;18.208;2023-04-01T15:48:06;2.70;;;2.00;;
57303;SDS011;43150;50.986;18.208;2023-04-01T15:56:51;4.30;;;2.20;;
57303;SDS011;43150;50.986;18.208;2023-04-01T16:01:46;5.10;;;3.00;;
57303;SDS011;43150;50.986;18.208;2023-04-01T16:04:43;5.10;;;4.60;;
57303;SDS011;43150;50.986;18.208;2023-04-01T16:07:23;6.80;;;6.10;;
57303;SDS011;43150;50.986;18.208;2023-04-01T16:23:19;5.90;;;3.50;;
57303;SDS011;43150;50.986;18.208;2023-04-01T16:30:59;6.10;;;3.90;;
57303;SDS011;43150;50.986;18.208;2023-04-01T16:44:20;11.00;;;6.20;;
57303;SDS011;43150;50.986;18.208;2023-04-01T16:46:51;12.00;;;7.90;;
57303;SDS011;43150;50.986;18.208;2023-04-01T16:54:53;15.60;;;9.00;;
57303;SDS011;43150;50.986;18.208;2023-04-01T17:03:13;15.20;;;11.40;;
57303;SDS011;43150;50.986;18.208;2023-04-01T17:14:12;21.30;;;15.70;;
57303;SDS011;43150;50.986;18.208;2023-04-01T17:17:13;22.40;;;16.50;;
57303;SDS011;43150;50.986;18.208;2023-04-01T17:22:21;22.10;;;15.80;;
57303;SDS011;43150;50.986;18.208;2023-04-01T17:25:01;22.70;;;16.80;;
57303;SDS011;43150;50.986;18.208;2023-04-01T17:30:14;33.50;;;25.60;;
57303;SDS011;43150;50.986;18.208;2023-04-01T17:38:21;32.00;;;23.70;;
57303;SDS011;43150;50.986;18.208;2023-04-01T17:40:52;31.10;;;24.10;;
57303;SDS011;43150;50.986;18.208;2023-04-01T18:02:15;40.50;;;29.30;;
57303;SDS011;43150;50.986;18.208;2023-04-01T18:12:42;49.60;;;44.90;;
57303;SDS011;43150;50.986;18.208;2023-04-01T18:23:24;42.90;;;30.90;;
57303;SDS011;43150;50.986;18.208;2023-04-01T18:25:53;41.50;;;29.60;;
57303;SDS011;43150;50.986;18.208;2023-04-01T18:28:35;41.80;;;31.10;;
57303;SDS011;43150;50.986;18.208;2023-04-01T18:36:55;47.50;;;30.60;;
57303;SDS011;43150;50.986;18.208;2023-04-01T18:39:22;51.10;;;36.70;;
57303;SDS011;43150;50.986;18.208;2023-04-01T18:41:55;54.30;;;37.60;;
57303;SDS011;43150;50.986;18.208;2023-04-01T18:44:44;85.10;;;54.90;;
57303;SDS011;43150;50.986;18.208;2023-04-01T18:50:07;51.30;;;37.10;;
57303;SDS011;43150;50.986;18.208;2023-04-01T18:52:37;47.70;;;36.60;;
57303;SDS011;43150;50.986;18.208;2023-04-01T18:55:34;41.40;;;32.60;;
57303;SDS011;43150;50.986;18.208;2023-04-01T18:58:20;44.20;;;31.40;;
57303;SDS011;43150;50.986;18.208;2023-04-01T19:00:49;47.50;;;33.20;;
57303;SDS011;43150;50.986;18.208;2023-04-01T19:03:43;49.90;;;33.10;;
57303;SDS011;43150;50.986;18.208;2023-04-01T19:06:41;49.70;;;35.90;;
57303;SDS011;43150;50.986;18.208;2023-04-01T19:09:00;51.10;;;36.30;;
57303;SDS011;43150;50.986;18.208;2023-04-01T19:14:23;51.80;;;34.10;;
57303;SDS011;43150;50.986;18.208;2023-04-01T19:17:10;59.80;;;36.40;;
57303;SDS011;43150;50.986;18.208;2023-04-01T19:27:29;52.10;;;34.50;;
57303;SDS011;43150;50.986;18.208;2023-04-01T19:37:50;42.30;;;29.30;;
57303;SDS011;43150;50.986;18.208;2023-04-01T19:42:48;47.60;;;28.60;;
57303;SDS011;43150;50.986;18.208;2023-04-01T19:56:19;48.40;;;30.60;;
57303;SDS011;43150;50.986;18.208;2023-04-01T19:58:52;44.50;;;27.80;;
57303;SDS011;43150;50.986;18.208;2023-04-01T20:04:08;43.30;;;28.70;;
57303;SDS011;43150;50.986;18.208;2023-04-01T20:06:43;48.50;;;43.60;;
57303;SDS011;43150;50.986;18.208;2023-04-01T20:14:27;45.20;;;27.70;;
57303;SDS011;43150;50.986;18.208;2023-04-01T20:19:40;40.80;;;28.20;;
57303;SDS011;43150;50.986;18.208;2023-04-01T20:22:20;40.20;;;27.00;;
57303;SDS011;43150;50.986;18.208;2023-04-01T20:24:51;43.90;;;26.70;;
57303;SDS011;43150;50.986;18.208;2023-04-01T20:27:18;42.90;;;26.30;;
57303;SDS011;43150;50.986;18.208;2023-04-01T20:29:56;40.50;;;27.40;;
57303;SDS011;43150;50.986;18.208;2023-04-01T20:46:03;37.10;;;24.40;;
57303;SDS011;43150;50.986;18.208;2023-04-01T20:48:40;42.30;;;28.30;;
57303;SDS011;43150;50.986;18.208;2023-04-01T20:51:13;40.50;;;27.00;;
57303;SDS011;43150;50.986;18.208;2023-04-01T20:54:04;40.20;;;24.50;;
57303;SDS011;43150;50.986;18.208;2023-04-01T20:59:23;39.00;;;25.00;;
57303;SDS011;43150;50.986;18.208;2023-04-01T21:04:37;39.60;;;27.80;;
57303;SDS011;43150;50.986;18.208;2023-04-01T21:10:01;37.70;;;25.00;;
57303;SDS011;43150;50.986;18.208;2023-04-01T21:15:40;36.30;;;23.30;;
57303;SDS011;43150;50.986;18.208;2023-04-01T21:18:58;35.20;;;23.10;;
57303;SDS011;43150;50.986;18.208;2023-04-01T21:29:25;33.50;;;21.90;;
57303;SDS011;43150;50.986;18.208;2023-04-01T21:53:32;26.40;;;18.00;;
57303;SDS011;43150;50.986;18.208;2023-04-01T22:08:55;33.10;;;23.40;;
57303;SDS011;43150;50.986;18.208;2023-04-01T22:16:56;43.80;;;32.20;;
57303;SDS011;43150;50.986;18.208;2023-04-01T22:27:45;32.40;;;20.10;;
57303;SDS011;43150;50.986;18.208;2023-04-01T22:30:17;33.70;;;22.70;;
57303;SDS011;43150;50.986;18.208;2023-04-01T22:37:55;35.20;;;23.40;;
57303;SDS011;43150;50.986;18.208;2023-04-01T22:42:59;28.50;;;19.30;;
57303;SDS011;43150;50.986;18.208;2023-04-01T22:45:40;29.60;;;20.70;;
57303;SDS011;43150;50.986;18.208;2023-04-01T22:48:12;30.00;;;21.20;;
57303;SDS011;43150;50.986;18.208;2023-04-01T22:55:40;36.20;;;25.50;;
57303;SDS011;43150;50.986;18.208;2023-04-01T22:58:11;33.70;;;24.10;;
57303;SDS011;43150;50.986;18.208;2023-04-01T23:05:46;32.70;;;21.70;;
57303;SDS011;43150;50.986;18.208;2023-04-01T23:11:18;31.50;;;23.60;;
57303;SDS011;43150;50.986;18.208;2023-04-01T23:13:47;27.40;;;20.10;;
57303;SDS011;43150;50.986;18.208;2023-04-01T23:16:22;32.60;;;22.20;;
57303;SDS011;43150;50.986;18.208;2023-04-01T23:24:00;30.90;;;21.70;;
57303;SDS011;43150;50.986;18.208;2023-04-01T23:26:33;34.70;;;25.50;;
57303;SDS011;43150;50.986;18.208;2023-04-01T23:29:00;30.40;;;19.00;;
57303;SDS011;43150;50.986;18.208;2023-04-01T23:31:35;30.50;;;21.70;;
57303;SDS011;43150;50.986;18.208;2023-04-01T23:36:45;33.00;;;21.00;;
57303;SDS011;43150;50.986;18.208;2023-04-01T23:39:34;30.90;;;23.20;;
57303;SDS011;43150;50.986;18.208;2023-04-01T23:42:03;31.00;;;20.40;;
57303;SDS011;43150;50.986;18.208;2023-04-01T23:44:30;28.20;;;23.10;;
57303;SDS011;43150;50.986;18.208;2023-04-01T23:46:56;26.80;;;20.10;;
57303;SDS011;43150;50.986;18.208;2023-04-01T23:49:28;28.80;;;20.10;;
57303;SDS011;43150;50.986;18.208;2023-04-01T23:52:03;30.50;;;22.50;;
57303;SDS011;43150;50.986;18.208;2023-04-01T23:56:57;31.00;;;25.40;;
57303;SDS011;43150;50.986;18.208;2023-04-01T23:59:24;31.80;;;20.70;;
